createdAt,value
2023-03-06T00:01:07.627Z,2.33
2023-03-06T00:03:34.231Z,2.40
2023-03-06T00:06:01.734Z,2.63
2023-03-06T00:08:29.021Z,2.70
2023-03-06T00:10:56.294Z,2.53
2023-03-06T00:13:22.866Z,2.90
2023-03-06T00:15:49.392Z,2.53
2023-03-06T00:18:16.043Z,3.03
2023-03-06T00:20:43.880Z,3.35
2023-03-06T00:23:11.188Z,2.83
2023-03-06T00:25:38.748Z,3.00
2023-03-06T00:28:06.224Z,2.60
2023-03-06T00:30:33.036Z,3.00
2023-03-06T00:32:59.440Z,3.00
2023-03-06T00:35:25.785Z,2.88
2023-03-06T00:37:52.163Z,3.22
2023-03-06T00:40:20.251Z,3.30
2023-03-06T00:42:47.602Z,2.63
2023-03-06T00:45:14.252Z,2.90
2023-03-06T00:47:41.116Z,3.17
2023-03-06T00:50:08.562Z,2.70
2023-03-06T00:52:35.261Z,3.10
2023-03-06T00:55:01.698Z,3.30
2023-03-06T00:57:28.125Z,3.03
2023-03-06T00:59:54.451Z,2.92
2023-03-06T01:02:21.326Z,3.00
2023-03-06T01:04:47.699Z,3.08
2023-03-06T01:07:14.148Z,3.13
2023-03-06T01:09:40.687Z,2.90
2023-03-06T01:12:07.458Z,3.03
2023-03-06T01:14:33.945Z,3.15
2023-03-06T01:17:00.301Z,3.58
2023-03-06T01:19:26.655Z,2.88
2023-03-06T01:21:52.991Z,3.47
2023-03-06T01:24:19.382Z,3.67
2023-03-06T01:26:45.736Z,3.90
2023-03-06T01:29:12.084Z,3.30
2023-03-06T01:31:38.443Z,3.63
2023-03-06T01:34:04.925Z,3.10
2023-03-06T01:36:31.408Z,3.42
2023-03-06T01:38:57.869Z,3.40
2023-03-06T01:41:24.374Z,3.65
2023-03-06T01:43:51.200Z,3.65
2023-03-06T01:46:33.268Z,3.47
2023-03-06T01:49:24.095Z,3.58
2023-03-06T01:51:57.557Z,3.85
2023-03-06T01:54:28.406Z,3.70
2023-03-06T01:57:02.340Z,3.80
2023-03-06T01:59:29.181Z,3.70
2023-03-06T02:01:57.175Z,3.70
2023-03-06T02:04:24.031Z,3.58
2023-03-06T02:06:50.750Z,4.15
2023-03-06T02:09:17.082Z,3.83
2023-03-06T02:11:45.200Z,3.55
2023-03-06T02:14:15.086Z,4.00
2023-03-06T02:19:21.909Z,3.25
2023-03-06T02:21:48.258Z,3.70
2023-03-06T02:24:42.163Z,3.83
2023-03-06T02:27:10.001Z,3.33
2023-03-06T02:29:36.673Z,3.75
2023-03-06T02:32:03.700Z,3.92
2023-03-06T02:34:30.002Z,3.83
2023-03-06T02:37:06.845Z,4.05
2023-03-06T02:39:35.921Z,3.85
2023-03-06T02:42:02.276Z,4.35
2023-03-06T02:44:30.048Z,4.20
2023-03-06T02:46:56.408Z,4.45
2023-03-06T02:49:24.377Z,4.20
2023-03-06T02:51:51.809Z,4.30
2023-03-06T02:54:18.380Z,4.20
2023-03-06T02:56:45.398Z,4.30
2023-03-06T02:59:12.581Z,4.45
2023-03-06T03:01:39.208Z,4.32
2023-03-06T03:04:05.553Z,4.13
2023-03-06T03:06:31.917Z,4.30
2023-03-06T03:08:58.263Z,4.40
2023-03-06T03:11:24.610Z,4.13
2023-03-06T03:13:50.970Z,4.65
2023-03-06T03:16:17.826Z,4.05
2023-03-06T03:18:44.964Z,4.25
2023-03-06T03:21:13.258Z,4.15
2023-03-06T03:23:40.024Z,4.68
2023-03-06T03:26:08.530Z,4.50
2023-03-06T03:28:34.926Z,4.80
2023-03-06T03:31:06.372Z,4.13
2023-03-06T03:33:33.672Z,4.60
2023-03-06T03:36:01.402Z,4.30
2023-03-06T03:38:28.473Z,4.45
2023-03-06T03:40:55.300Z,4.53
2023-03-06T03:43:21.687Z,4.53
2023-03-06T03:45:48.362Z,4.65
2023-03-06T03:48:14.843Z,4.78
2023-03-06T03:50:41.193Z,4.70
2023-03-06T03:53:07.552Z,4.43
2023-03-06T03:55:33.920Z,4.70
2023-03-06T03:58:00.293Z,4.13
2023-03-06T04:00:26.653Z,4.68
2023-03-06T04:02:53.006Z,4.50
2023-03-06T04:05:19.470Z,4.82
2023-03-06T04:07:45.837Z,4.82
2023-03-06T04:10:13.389Z,4.82
2023-03-06T04:12:39.756Z,4.72
2023-03-06T04:15:06.893Z,4.45
2023-03-06T04:17:34.938Z,4.53
2023-03-06T04:20:04.457Z,4.90
2023-03-06T04:22:31.031Z,4.50
2023-03-06T04:24:57.465Z,4.43
2023-03-06T04:27:23.867Z,4.80
2023-03-06T04:29:50.258Z,4.75
2023-03-06T04:32:16.643Z,4.32
2023-03-06T04:34:43.000Z,4.40
2023-03-06T04:37:18.762Z,4.53
2023-03-06T04:39:45.140Z,4.15
2023-03-06T04:42:11.552Z,4.53
2023-03-06T04:44:37.940Z,4.10
2023-03-06T04:47:04.524Z,4.30
2023-03-06T04:49:31.189Z,4.57
2023-03-06T04:51:57.528Z,4.57
2023-03-06T04:54:24.096Z,4.38
2023-03-06T04:56:50.465Z,4.38
2023-03-06T04:59:16.994Z,4.82
2023-03-06T05:01:43.427Z,5.00
2023-03-06T05:04:09.880Z,5.00
2023-03-06T05:06:36.198Z,4.65
2023-03-06T05:09:02.629Z,5.05
2023-03-06T05:11:29.058Z,4.63
2023-03-06T05:13:55.416Z,4.47
2023-03-06T05:16:21.776Z,4.50
2023-03-06T05:18:50.521Z,4.70
2023-03-06T05:21:17.062Z,4.85
2023-03-06T05:23:43.390Z,4.70
2023-03-06T05:26:12.438Z,4.70
2023-03-06T05:28:38.972Z,4.55
2023-03-06T05:31:06.269Z,4.88
2023-03-06T05:33:33.896Z,4.68
2023-03-06T05:36:00.931Z,5.00
2023-03-06T05:38:27.768Z,4.80
2023-03-06T05:40:54.136Z,4.72
2023-03-06T05:43:20.530Z,4.78
2023-03-06T05:45:46.953Z,4.45
2023-03-06T05:48:13.759Z,4.20
2023-03-06T05:50:40.243Z,5.85
2023-03-06T05:53:07.680Z,5.25
2023-03-06T05:55:35.076Z,4.90
2023-03-06T05:58:01.547Z,4.57
2023-03-06T06:00:27.922Z,5.03
2023-03-06T06:02:54.347Z,5.00
2023-03-06T06:05:20.825Z,4.85
2023-03-06T06:07:47.241Z,5.20
2023-03-06T06:10:13.642Z,5.30
2023-03-06T06:12:40.172Z,5.13
2023-03-06T06:15:07.099Z,5.13
2023-03-06T06:17:33.448Z,5.38
2023-03-06T06:19:59.860Z,5.38
2023-03-06T06:22:26.308Z,5.53
2023-03-06T06:24:52.656Z,5.10
2023-03-06T06:27:19.005Z,4.95
2023-03-06T06:29:45.372Z,5.28
2023-03-06T06:32:12.224Z,4.80
2023-03-06T06:34:38.677Z,5.68
2023-03-06T06:37:05.335Z,5.15
2023-03-06T06:39:31.695Z,5.05
2023-03-06T06:42:20.032Z,5.40
2023-03-06T06:44:44.411Z,5.25
2023-03-06T06:47:26.378Z,5.32
2023-03-06T06:49:54.557Z,5.47
2023-03-06T06:52:21.670Z,5.30
2023-03-06T06:54:48.057Z,4.97
2023-03-06T06:57:14.876Z,5.05
2023-03-06T06:59:41.319Z,4.90
2023-03-06T07:02:07.799Z,5.25
2023-03-06T07:04:34.167Z,5.60
2023-03-06T07:07:01.122Z,5.70
2023-03-06T07:09:27.554Z,5.32
2023-03-06T07:11:53.999Z,5.65
2023-03-06T07:14:20.334Z,5.38
2023-03-06T07:16:46.677Z,5.43
2023-03-06T07:19:13.068Z,5.60
2023-03-06T07:21:39.438Z,6.20
2023-03-06T07:24:06.157Z,6.18
2023-03-06T07:26:34.587Z,5.72
2023-03-06T07:29:01.949Z,5.65
2023-03-06T07:31:28.570Z,5.80
2023-03-06T07:33:55.443Z,6.20
2023-03-06T07:36:23.635Z,5.78
2023-03-06T07:38:50.070Z,6.07
2023-03-06T07:41:17.521Z,5.72
2023-03-06T07:43:44.996Z,5.68
2023-03-06T07:46:13.038Z,6.22
2023-03-06T07:48:40.192Z,5.80
2023-03-06T07:51:10.269Z,5.53
2023-03-06T07:53:36.705Z,5.80
2023-03-06T07:56:08.831Z,5.40
2023-03-06T07:58:36.444Z,7.32
2023-03-06T08:01:04.888Z,9.90
2023-03-06T08:03:31.453Z,6.00
2023-03-06T08:06:15.266Z,5.82
2023-03-06T08:08:43.468Z,5.75
2023-03-06T08:11:11.306Z,6.25
2023-03-06T08:13:39.252Z,5.97
2023-03-06T08:16:06.304Z,5.97
2023-03-06T08:18:33.374Z,6.03
2023-03-06T08:21:09.036Z,5.72
2023-03-06T08:23:36.088Z,6.10
2023-03-06T08:26:05.522Z,6.43
2023-03-06T08:28:32.319Z,6.00
2023-03-06T08:31:07.098Z,6.00
2023-03-06T08:33:33.550Z,5.78
2023-03-06T08:36:01.397Z,8.50
2023-03-06T08:38:28.686Z,6.53
2023-03-06T08:40:55.095Z,5.65
2023-03-06T08:43:21.447Z,6.32
2023-03-06T08:45:56.576Z,5.95
2023-03-06T08:48:23.026Z,6.13
2023-03-06T08:50:49.865Z,6.47
2023-03-06T08:53:18.766Z,6.32
2023-03-06T08:55:45.635Z,6.68
2023-03-06T08:58:12.003Z,5.97
2023-03-06T09:00:38.485Z,6.00
2023-03-06T09:03:06.704Z,5.97
2023-03-06T09:05:33.557Z,6.00
2023-03-06T09:08:00.010Z,6.35
2023-03-06T09:10:27.341Z,6.18
2023-03-06T09:12:55.058Z,6.78
2023-03-06T09:15:22.871Z,5.85
2023-03-06T09:17:49.475Z,6.65
2023-03-06T09:20:16.745Z,6.20
2023-03-06T09:22:43.589Z,6.78
2023-03-06T09:25:13.082Z,5.97
2023-03-06T09:27:40.189Z,6.63
2023-03-06T09:30:07.388Z,6.78
2023-03-06T09:32:33.880Z,6.60
2023-03-06T09:35:01.123Z,6.25
2023-03-06T09:37:27.506Z,7.07
2023-03-06T09:39:53.872Z,6.75
2023-03-06T09:42:23.409Z,6.68
2023-03-06T09:44:59.138Z,6.72
2023-03-06T09:47:40.869Z,6.95
2023-03-06T09:50:19.343Z,6.85
2023-03-06T09:53:06.140Z,7.15
2023-03-06T09:55:35.615Z,6.63
2023-03-06T09:58:12.719Z,6.72
2023-03-06T10:00:55.337Z,6.57
2023-03-06T10:03:29.423Z,6.43
2023-03-06T10:06:04.741Z,6.70
2023-03-06T10:08:57.788Z,6.28
2023-03-06T10:11:37.772Z,6.60
2023-03-06T10:14:24.325Z,6.47
2023-03-06T10:16:50.894Z,6.60
2023-03-06T10:19:20.637Z,7.07
2023-03-06T10:24:35.944Z,7.32
2023-03-06T10:27:23.918Z,6.75
2023-03-06T10:30:03.235Z,7.75
2023-03-06T10:32:49.868Z,8.43
2023-03-06T10:35:23.840Z,6.95
2023-03-06T10:37:50.340Z,7.47
2023-03-06T10:40:22.643Z,7.63
2023-03-06T10:42:56.075Z,7.93
2023-03-06T10:45:29.938Z,8.60
2023-03-06T10:48:11.964Z,8.13
2023-03-06T10:50:38.447Z,7.95
2023-03-06T10:53:07.457Z,7.72
2023-03-06T10:55:35.550Z,7.95
2023-03-06T10:58:18.414Z,8.60
2023-03-06T11:00:45.448Z,8.02
2023-03-06T11:03:21.967Z,8.02
2023-03-06T11:06:03.971Z,7.88
2023-03-06T11:08:31.051Z,7.13
2023-03-06T11:11:06.824Z,7.97
2023-03-06T11:13:36.512Z,7.72
2023-03-06T11:16:06.455Z,7.15
2023-03-06T11:18:59.993Z,9.70
2023-03-06T11:21:32.622Z,7.97
2023-03-06T11:24:05.855Z,7.90
2023-03-06T11:26:52.497Z,7.80
2023-03-06T11:29:38.935Z,8.27
2023-03-06T11:32:12.358Z,8.27
2023-03-06T11:35:02.530Z,8.73
2023-03-06T11:37:42.850Z,8.40
2023-03-06T11:40:09.278Z,8.60
2023-03-06T11:42:42.585Z,8.88
2023-03-06T11:45:37.226Z,8.35
2023-03-06T11:48:15.851Z,8.02
2023-03-06T11:50:49.699Z,8.95
2023-03-06T11:53:21.222Z,9.25
2023-03-06T11:56:23.825Z,9.23
2023-03-06T11:59:18.623Z,8.63
2023-03-06T12:02:05.244Z,9.32
2023-03-06T12:04:55.033Z,8.68
2023-03-06T12:07:30.466Z,9.20
2023-03-06T12:10:23.264Z,8.82
2023-03-06T12:13:03.982Z,8.75
2023-03-06T12:15:45.335Z,9.30
2023-03-06T12:18:38.433Z,8.88
2023-03-06T12:21:41.850Z,8.90
2023-03-06T12:24:10.991Z,9.07
2023-03-06T12:26:54.531Z,8.50
2023-03-06T12:29:36.702Z,9.50
2023-03-06T12:32:14.888Z,8.65
2023-03-06T12:35:01.471Z,8.43
2023-03-06T12:37:52.300Z,8.07
2023-03-06T12:40:32.485Z,8.93
2023-03-06T12:43:18.580Z,10.30
2023-03-06T12:45:46.233Z,8.45
2023-03-06T12:48:25.433Z,8.00
2023-03-06T12:50:52.539Z,7.70
2023-03-06T12:53:28.391Z,8.38
2023-03-06T12:55:57.151Z,8.80
2023-03-06T12:58:29.836Z,8.23
2023-03-06T13:01:14.751Z,8.55
2023-03-06T13:04:17.380Z,7.82
2023-03-06T13:07:02.069Z,7.32
2023-03-06T13:09:37.425Z,7.78
2023-03-06T13:12:12.854Z,8.35
2023-03-06T13:14:42.342Z,8.20
2023-03-06T13:17:24.014Z,8.52
2023-03-06T13:20:15.463Z,8.23
2023-03-06T13:22:43.926Z,8.82
2023-03-06T13:25:19.612Z,8.93
2023-03-06T13:28:01.025Z,9.45
2023-03-06T13:30:36.664Z,9.23
2023-03-06T13:33:37.064Z,9.63
2023-03-06T13:36:24.694Z,8.80
2023-03-06T13:38:51.632Z,9.15
2023-03-06T13:41:24.828Z,9.85
2023-03-06T13:43:59.440Z,9.82
2023-03-06T13:46:34.769Z,9.30
2023-03-06T13:49:13.311Z,9.88
2023-03-06T13:52:06.139Z,9.88
2023-03-06T13:54:58.472Z,8.98
2023-03-06T13:57:27.703Z,9.23
2023-03-06T14:00:31.227Z,9.73
2023-03-06T14:03:26.346Z,8.80
2023-03-06T14:05:53.050Z,9.70
2023-03-06T14:08:22.720Z,8.48
2023-03-06T14:11:00.244Z,8.85
2023-03-06T14:13:45.264Z,9.18
2023-03-06T14:16:22.262Z,8.85
2023-03-06T14:18:51.334Z,8.73
2023-03-06T14:21:39.494Z,9.10
2023-03-06T14:24:06.062Z,8.77
2023-03-06T14:26:39.376Z,8.23
2023-03-06T14:29:25.490Z,9.38
2023-03-06T14:31:54.679Z,8.85
2023-03-06T14:34:23.894Z,8.57
2023-03-06T14:36:53.006Z,8.85
2023-03-06T14:39:29.172Z,8.30
2023-03-06T14:42:28.489Z,8.27
2023-03-06T14:45:18.570Z,8.60
2023-03-06T14:47:52.610Z,7.50
2023-03-06T14:50:30.807Z,8.00
2023-03-06T14:53:02.906Z,7.03
2023-03-06T14:55:32.160Z,7.13
2023-03-06T14:58:14.874Z,12.80
2023-03-06T15:00:44.870Z,9.13
2023-03-06T15:03:18.198Z,6.75
2023-03-06T15:05:46.969Z,6.90
2023-03-06T15:08:19.205Z,6.90
2023-03-06T15:11:03.907Z,6.95
2023-03-06T15:13:32.141Z,6.55
2023-03-06T15:16:01.157Z,6.57
2023-03-06T15:18:39.115Z,6.13
2023-03-06T15:21:08.339Z,6.43
2023-03-06T15:23:40.963Z,6.32
2023-03-06T15:26:33.157Z,6.57
2023-03-06T15:29:10.066Z,6.35
2023-03-06T15:31:39.260Z,6.20
2023-03-06T15:34:11.445Z,6.28
2023-03-06T15:36:43.369Z,6.03
2023-03-06T15:39:40.052Z,6.32
2023-03-06T15:42:19.656Z,5.82
2023-03-06T15:44:51.632Z,6.13
2023-03-06T15:47:18.043Z,5.70
2023-03-06T15:49:44.607Z,6.25
2023-03-06T15:52:11.003Z,5.90
2023-03-06T15:54:37.610Z,11.15
2023-03-06T15:57:08.068Z,10.20
2023-03-06T15:59:42.896Z,6.78
2023-03-06T16:02:16.423Z,6.72
2023-03-06T16:04:43.109Z,6.82
2023-03-06T16:07:09.564Z,5.15
2023-03-06T16:09:36.229Z,6.50
2023-03-06T16:12:03.184Z,7.03
2023-03-06T16:14:29.641Z,7.32
2023-03-06T16:16:56.941Z,7.25
2023-03-06T16:19:26.859Z,6.80
2023-03-06T16:21:55.264Z,5.60
2023-03-06T16:24:21.902Z,5.43
2023-03-06T16:26:50.968Z,6.15
2023-03-06T16:29:22.770Z,5.40
2023-03-06T16:31:49.255Z,6.22
2023-03-06T16:34:16.042Z,5.60
2023-03-06T16:36:42.540Z,4.80
2023-03-06T16:39:14.643Z,5.45
2023-03-06T16:41:41.317Z,6.03
2023-03-06T16:44:10.034Z,5.28
2023-03-06T16:46:40.694Z,5.78
2023-03-06T16:49:07.239Z,5.25
2023-03-06T16:51:33.650Z,5.82
2023-03-06T16:54:00.153Z,5.72
2023-03-06T16:56:26.628Z,5.40
2023-03-06T16:58:53.013Z,5.30
2023-03-06T17:01:20.036Z,5.60
2023-03-06T17:03:47.153Z,11.80
2023-03-06T17:06:19.112Z,6.13
2023-03-06T17:08:46.209Z,5.82
2023-03-06T17:11:13.478Z,5.60
2023-03-06T17:13:40.668Z,6.03
2023-03-06T17:16:09.641Z,6.28
2023-03-06T17:18:36.094Z,5.55
2023-03-06T17:21:02.483Z,6.00
2023-03-06T17:23:29.610Z,5.93
2023-03-06T17:26:18.697Z,5.40
2023-03-06T17:28:45.630Z,4.85
2023-03-06T17:31:23.120Z,5.28
2023-03-06T17:33:51.396Z,5.70
2023-03-06T17:36:19.196Z,5.40
2023-03-06T17:38:45.772Z,6.43
2023-03-06T17:41:13.035Z,5.45
2023-03-06T17:43:40.269Z,5.90
2023-03-06T17:46:12.150Z,6.82
2023-03-06T17:48:39.795Z,5.63
2023-03-06T17:51:06.650Z,6.07
2023-03-06T17:53:33.178Z,5.82
2023-03-06T17:55:59.629Z,6.00
2023-03-06T17:58:26.884Z,6.07
2023-03-06T18:00:53.766Z,5.90
2023-03-06T18:03:20.304Z,5.95
2023-03-06T18:05:46.725Z,41.55
2023-03-06T18:08:13.553Z,31.83
2023-03-06T18:10:41.324Z,9.43
2023-03-06T18:13:08.973Z,6.85
2023-03-06T18:15:39.434Z,6.80
2023-03-06T18:18:06.275Z,7.72
2023-03-06T18:20:32.931Z,6.20
2023-03-06T18:23:03.402Z,6.50
2023-03-06T18:25:31.727Z,6.13
2023-03-06T18:27:58.093Z,5.65
2023-03-06T18:30:24.592Z,6.05
2023-03-06T18:32:50.982Z,6.10
2023-03-06T18:35:17.478Z,5.88
2023-03-06T18:37:43.958Z,5.93
2023-03-06T18:40:11.073Z,5.70
2023-03-06T18:42:37.433Z,5.82
2023-03-06T18:45:04.259Z,7.13
2023-03-06T18:47:30.625Z,6.72
2023-03-06T18:49:57.026Z,6.30
2023-03-06T18:52:23.393Z,5.97
2023-03-06T18:54:50.459Z,6.32
2023-03-06T18:57:16.792Z,7.07
2023-03-06T18:59:43.286Z,6.35
2023-03-06T19:02:10.807Z,6.45
2023-03-06T19:04:37.805Z,8.10
2023-03-06T19:07:05.539Z,9.50
2023-03-06T19:09:31.910Z,7.07
2023-03-06T19:11:59.233Z,6.75
2023-03-06T19:14:27.881Z,6.35
2023-03-06T19:16:54.814Z,8.68
2023-03-06T19:19:26.023Z,6.82
2023-03-06T19:21:53.425Z,7.18
2023-03-06T19:24:19.800Z,8.02
2023-03-06T19:26:46.238Z,6.25
2023-03-06T19:29:12.596Z,7.20
2023-03-06T19:31:38.982Z,7.90
2023-03-06T19:34:05.350Z,7.10
2023-03-06T19:36:33.996Z,6.95
2023-03-06T19:39:03.525Z,7.55
2023-03-06T19:41:29.910Z,7.65
2023-03-06T19:43:58.835Z,7.22
2023-03-06T19:46:26.290Z,7.10
2023-03-06T19:48:58.115Z,7.40
2023-03-06T19:51:25.358Z,7.80
2023-03-06T19:53:52.368Z,7.45
2023-03-06T19:56:25.972Z,7.03
2023-03-06T19:58:52.674Z,7.45
2023-03-06T20:01:21.295Z,7.10
2023-03-06T20:03:49.304Z,7.28
2023-03-06T20:06:18.450Z,7.70
2023-03-06T20:08:46.227Z,7.50
2023-03-06T20:11:17.958Z,7.78
2023-03-06T20:13:47.395Z,7.50
2023-03-06T20:18:40.893Z,7.30
2023-03-06T20:21:07.348Z,7.50
2023-03-06T20:23:33.922Z,7.10
2023-03-06T20:26:11.917Z,7.18
2023-03-06T20:28:39.513Z,7.60
2023-03-06T20:31:13.823Z,7.82
2023-03-06T20:33:40.278Z,7.38
2023-03-06T20:36:21.274Z,7.45
2023-03-06T20:38:47.950Z,7.60
2023-03-06T20:41:19.129Z,7.57
2023-03-06T20:43:45.534Z,8.02
2023-03-06T20:46:12.684Z,8.02
2023-03-06T20:48:40.016Z,7.88
2023-03-06T20:51:13.588Z,7.88
2023-03-06T20:53:40.013Z,7.63
2023-03-06T20:56:06.675Z,8.60
2023-03-06T20:58:33.038Z,8.50
2023-03-06T21:01:02.029Z,8.63
2023-03-06T21:03:29.273Z,7.82
2023-03-06T21:05:55.733Z,7.95
2023-03-06T21:08:22.230Z,8.27
2023-03-06T21:10:48.821Z,8.20
2023-03-06T21:13:15.208Z,9.00
2023-03-06T21:15:43.386Z,8.43
2023-03-06T21:18:11.101Z,9.32
2023-03-06T21:20:38.718Z,8.57
2023-03-06T21:23:06.091Z,8.93
2023-03-06T21:25:32.584Z,8.88
2023-03-06T21:28:00.172Z,9.18
2023-03-06T21:30:27.764Z,10.93
2023-03-06T21:32:55.574Z,8.95
2023-03-06T21:35:22.263Z,9.05
2023-03-06T21:37:48.625Z,8.77
2023-03-06T21:40:15.044Z,9.43
2023-03-06T21:42:41.572Z,8.82
2023-03-06T21:45:08.793Z,9.05
2023-03-06T21:47:38.867Z,9.40
2023-03-06T21:50:07.252Z,8.93
2023-03-06T21:52:33.621Z,9.00
2023-03-06T21:55:00.127Z,9.50
2023-03-06T21:57:26.550Z,9.20
2023-03-06T21:59:52.894Z,10.32
2023-03-06T22:02:19.288Z,8.75
2023-03-06T22:04:50.098Z,9.65
2023-03-06T22:07:16.649Z,8.68
2023-03-06T22:09:43.082Z,7.82
2023-03-06T22:12:09.598Z,8.80
2023-03-06T22:14:36.018Z,8.57
2023-03-06T22:17:02.519Z,8.63
2023-03-06T22:19:28.944Z,8.93
2023-03-06T22:21:55.632Z,9.15
2023-03-06T22:24:21.980Z,8.57
2023-03-06T22:26:48.421Z,9.18
2023-03-06T22:29:14.786Z,8.63
2023-03-06T22:31:41.165Z,8.82
2023-03-06T22:34:07.695Z,9.40
2023-03-06T22:36:34.071Z,10.25
2023-03-06T22:39:02.319Z,9.20
2023-03-06T22:41:28.960Z,9.13
2023-03-06T22:44:00.029Z,8.80
2023-03-06T22:46:27.033Z,9.43
2023-03-06T22:48:55.882Z,8.73
2023-03-06T22:51:22.234Z,8.82
2023-03-06T22:53:49.279Z,9.00
2023-03-06T22:56:18.943Z,8.60
2023-03-06T22:58:46.349Z,8.57
2023-03-06T23:01:15.548Z,8.95
2023-03-06T23:03:46.939Z,8.75
2023-03-06T23:06:21.920Z,9.30
2023-03-06T23:08:50.974Z,9.25
2023-03-06T23:11:19.424Z,8.40
2023-03-06T23:13:46.557Z,8.73
2023-03-06T23:16:13.044Z,8.90
2023-03-06T23:18:39.936Z,8.63
2023-03-06T23:21:08.729Z,8.48
2023-03-06T23:23:36.299Z,8.57
2023-03-06T23:26:03.444Z,8.20
2023-03-06T23:28:30.504Z,8.60
2023-03-06T23:30:57.187Z,8.00
2023-03-06T23:33:23.815Z,8.25
2023-03-06T23:35:50.448Z,8.57
2023-03-06T23:38:16.840Z,8.60
2023-03-06T23:40:43.188Z,8.75
2023-03-06T23:43:09.857Z,9.32
2023-03-06T23:45:36.544Z,8.60
2023-03-06T23:48:04.936Z,8.68
2023-03-06T23:50:31.855Z,9.30
2023-03-06T23:52:58.271Z,8.77
2023-03-06T23:55:24.639Z,8.63
2023-03-06T23:57:50.995Z,8.32
